Time;durP1;ratioP1;P1;durP2;ratioP2;P2;SDS_P1;SDS_P2;PMS_P1;PMS_P2;Temp;Humidity;BMP_temperature;BMP_pressure;BME280_temperature;BME280_humidity;BME280_pressure;Samples;Min_cycle;Max_cycle;Signal;HPM_P1;HPM_P2
2023/06/08 00:00:26;;;;;;;23.40;14.60;;;19.10;47.80;;;;;;5050763;28;20679;-71
2023/06/08 00:02:53;;;;;;;22.83;14.57;;;19.10;47.60;;;;;;5050813;28;20458;-72
2023/06/08 00:05:20;;;;;;;19.17;13.60;;;19.10;47.60;;;;;;5050683;28;20400;-72
2023/06/08 00:07:46;;;;;;;17.65;13.50;;;19.10;47.50;;;;;;5050730;28;20385;-71
2023/06/08 00:10:12;;;;;;;19.05;13.18;;;19.10;48.10;;;;;;5050706;28;20389;-72
2023/06/08 00:12:38;;;;;;;22.25;13.75;;;19.10;48.00;;;;;;5050307;28;20441;-72
2023/06/08 00:15:05;;;;;;;21.02;13.63;;;19.10;48.10;;;;;;5050658;28;20460;-72
2023/06/08 00:17:31;;;;;;;18.25;13.40;;;19.10;47.90;;;;;;5050895;28;20381;-72
2023/06/08 00:19:59;;;;;;;19.27;13.20;;;19.00;48.00;;;;;;5051056;28;20789;-72
2023/06/08 00:22:26;;;;;;;17.80;12.65;;;19.10;48.30;;;;;;5050453;28;20468;-73
2023/06/08 00:24:52;;;;;;;24.00;13.77;;;19.10;48.00;;;;;;5050571;28;20479;-72
2023/06/08 00:27:18;;;;;;;21.27;13.63;;;19.00;48.10;;;;;;5050809;28;20385;-72
2023/06/08 00:29:43;;;;;;;22.15;14.00;;;19.00;48.50;;;;;;5050562;28;20385;-71
2023/06/08 00:32:09;;;;;;;20.13;13.90;;;19.00;48.10;;;;;;5050000;28;20385;-71
2023/06/08 00:34:35;;;;;;;24.85;13.98;;;19.00;48.20;;;;;;5050536;28;20401;-70
2023/06/08 00:37:00;;;;;;;22.55;14.00;;;19.00;49.40;;;;;;5050165;28;20544;-72
2023/06/08 00:39:26;;;;;;;24.67;14.07;;;19.00;49.20;;;;;;5050190;28;20400;-72
2023/06/08 00:41:51;;;;;;;20.40;14.13;;;18.90;49.70;;;;;;5050063;28;20443;-72
2023/06/08 00:44:17;;;;;;;28.20;14.52;;;18.90;49.50;;;;;;5050207;28;20385;-72
2023/06/08 00:46:42;;;;;;;21.73;13.97;;;18.80;50.50;;;;;;5049124;28;20744;-72
2023/06/08 00:49:13;;;;;;;24.37;13.90;;;18.80;51.00;;;;;;5057959;28;20866;-72
2023/06/08 00:51:41;;;;;;;21.00;14.00;;;18.80;50.80;;;;;;5054106;28;20377;-72
2023/06/08 00:54:10;;;;;;;23.63;14.80;;;18.90;50.70;;;;;;5050517;28;20913;-71
2023/06/08 00:56:38;;;;;;;21.08;13.90;;;18.80;51.00;;;;;;5050483;28;20849;-72
2023/06/08 00:59:05;;;;;;;23.33;14.32;;;18.80;51.00;;;;;;5050560;28;20447;-71
2023/06/08 01:01:31;;;;;;;20.75;14.18;;;18.80;51.10;;;;;;5050153;28;20750;-71
2023/06/08 01:04:05;;;;;;;19.77;13.45;;;18.80;51.70;;;;;;5050505;28;20853;-73
2023/06/08 01:06:38;;;;;;;24.00;13.65;;;18.70;52.10;;;;;;5050703;28;20743;-71
2023/06/08 01:09:31;;;;;;;25.13;14.18;;;18.60;53.10;;;;;;5050623;28;20386;-72
2023/06/08 01:12:15;;;;;;;23.43;14.20;;;18.60;52.70;;;;;;5051532;28;20409;-73
2023/06/08 01:14:52;;;;;;;28.20;14.20;;;18.60;52.30;;;;;;5054635;28;20401;-73
2023/06/08 01:17:23;;;;;;;23.70;14.50;;;18.60;52.80;;;;;;5057145;28;20389;-73
2023/06/08 01:20:21;;;;;;;25.02;14.55;;;18.50;53.80;;;;;;5054255;28;20373;-72
2023/06/08 01:22:56;;;;;;;22.42;14.82;;;18.50;54.10;;;;;;5070252;28;20386;-73
2023/06/08 01:25:26;;;;;;;23.00;14.37;;;18.50;53.50;;;;;;5055895;28;20377;-71
2023/06/08 01:28:11;;;;;;;26.73;14.65;;;18.40;54.50;;;;;;5056639;28;20806;-73
2023/06/08 01:30:38;;;;;;;23.33;13.77;;;18.50;54.00;;;;;;5057337;28;20485;-72
2023/06/08 01:33:04;;;;;;;25.85;14.80;;;18.40;53.70;;;;;;5055789;28;20778;-72
2023/06/08 01:35:29;;;;;;;27.05;14.60;;;18.40;54.30;;;;;;5055620;28;20746;-73
2023/06/08 01:38:02;;;;;;;20.80;13.80;;;18.40;54.00;;;;;;5054876;28;20421;-71
2023/06/08 01:40:34;;;;;;;25.05;15.00;;;18.30;54.60;;;;;;5069948;28;20385;-73
2023/06/08 01:43:02;;;;;;;21.95;13.80;;;18.30;55.10;;;;;;5054323;28;20384;-71
2023/06/08 01:45:32;;;;;;;26.63;14.48;;;18.20;55.50;;;;;;5054589;28;20771;-73
2023/06/08 01:48:03;;;;;;;20.27;13.57;;;18.20;55.50;;;;;;5054242;28;20874;-73
2023/06/08 01:50:29;;;;;;;27.42;14.25;;;18.20;56.10;;;;;;5053738;28;20370;-71
2023/06/08 01:52:56;;;;;;;22.95;14.80;;;18.20;55.70;;;;;;5054228;28;20809;-72
2023/06/08 01:55:22;;;;;;;29.67;15.87;;;18.10;56.20;;;;;;5053899;28;20373;-72
2023/06/08 01:57:48;;;;;;;23.35;14.80;;;18.00;57.00;;;;;;5053986;28;20385;-72
2023/06/08 02:00:16;;;;;;;24.50;14.80;;;18.10;56.60;;;;;;5054045;28;20476;-72
2023/06/08 02:02:42;;;;;;;23.90;14.27;;;18.10;56.70;;;;;;5053809;28;20405;-72
2023/06/08 02:05:10;;;;;;;26.02;14.38;;;18.20;55.70;;;;;;5054136;28;20420;-73
2023/06/08 02:07:40;;;;;;;22.65;13.52;;;18.20;55.10;;;;;;5053825;28;20385;-73
2023/06/08 02:10:07;;;;;;;23.73;13.95;;;18.30;54.70;;;;;;5053269;28;20381;-72
2023/06/08 02:12:33;;;;;;;24.13;14.48;;;18.20;54.40;;;;;;5052900;28;20726;-73
2023/06/08 02:14:59;;;;;;;27.55;14.10;;;18.20;54.40;;;;;;5053016;28;20396;-72
2023/06/08 02:17:29;;;;;;;27.80;13.93;;;18.20;54.00;;;;;;5052860;28;20393;-71
2023/06/08 02:19:55;;;;;;;23.17;13.75;;;18.20;54.30;;;;;;5052829;28;20443;-70
2023/06/08 02:22:20;;;;;;;25.23;14.05;;;18.20;54.00;;;;;;5052595;28;20385;-71
2023/06/08 02:24:47;;;;;;;26.00;14.57;;;18.10;54.50;;;;;;5053128;28;20386;-70
2023/06/08 02:27:13;;;;;;;27.92;14.60;;;18.10;54.30;;;;;;5052927;28;20381;-71
2023/06/08 02:29:42;;;;;;;24.40;14.93;;;18.10;54.70;;;;;;5053392;28;20750;-71
2023/06/08 02:32:08;;;;;;;24.00;13.13;;;18.10;54.20;;;;;;5052912;28;20396;-72
2023/06/08 02:34:37;;;;;;;21.98;13.77;;;18.10;53.70;;;;;;5052021;28;20406;-71
2023/06/08 02:37:04;;;;;;;29.30;14.32;;;18.00;54.50;;;;;;5053086;28;20384;-72
2023/06/08 02:39:30;;;;;;;24.30;14.18;;;17.90;55.40;;;;;;5052508;28;20402;-72
2023/06/08 02:41:55;;;;;;;27.20;14.50;;;17.90;55.00;;;;;;5051591;28;20389;-72
2023/06/08 02:44:21;;;;;;;24.45;14.00;;;17.90;54.30;;;;;;5053559;28;20385;-73
2023/06/08 02:46:47;;;;;;;26.55;14.23;;;17.90;54.50;;;;;;5053701;28;20389;-71
2023/06/08 02:49:13;;;;;;;24.25;14.70;;;17.80;54.70;;;;;;5053925;28;20485;-72
2023/06/08 02:51:38;;;;;;;26.65;14.80;;;17.80;54.30;;;;;;5054213;28;20425;-72
2023/06/08 02:54:04;;;;;;;26.92;15.25;;;17.70;55.10;;;;;;5054416;28;20565;-72
2023/06/08 02:56:30;;;;;;;28.38;14.73;;;17.60;55.90;;;;;;5056147;28;20389;-72
2023/06/08 02:58:56;;;;;;;21.93;14.53;;;17.50;56.30;;;;;;5069500;28;20382;-72
2023/06/08 03:01:23;;;;;;;27.83;15.65;;;17.50;56.30;;;;;;5084220;28;20381;-72
2023/06/08 03:03:51;;;;;;;29.70;14.70;;;17.50;56.50;;;;;;5058954;28;20397;-71
2023/06/08 03:06:17;;;;;;;21.83;13.83;;;17.40;56.80;;;;;;5065377;28;20393;-72
2023/06/08 03:08:53;;;;;;;30.58;14.93;;;17.40;57.20;;;;;;5073199;28;20392;-71
2023/06/08 03:11:20;;;;;;;25.58;15.40;;;17.30;58.10;;;;;;5059103;28;20388;-72
2023/06/08 03:13:46;;;;;;;26.65;15.05;;;17.20;58.00;;;;;;5052446;28;20405;-72
2023/06/08 03:16:13;;;;;;;31.30;15.85;;;17.30;57.70;;;;;;5051929;28;20454;-73
2023/06/08 03:18:39;;;;;;;26.70;15.38;;;17.10;58.20;;;;;;5052206;28;20385;-72
2023/06/08 03:21:08;;;;;;;30.42;15.07;;;17.10;58.30;;;;;;5051657;28;20388;-72
2023/06/08 03:23:35;;;;;;;28.88;16.83;;;17.10;58.30;;;;;;5051974;28;20383;-73
2023/06/08 03:26:01;;;;;;;28.73;15.95;;;17.10;58.70;;;;;;5051853;28;20385;-72
2023/06/08 03:28:27;;;;;;;32.53;16.77;;;17.00;59.20;;;;;;5052121;28;20947;-72
2023/06/08 03:30:53;;;;;;;29.27;15.00;;;17.00;59.00;;;;;;5051890;28;20386;-72
2023/06/08 03:33:19;;;;;;;30.48;15.50;;;16.90;59.70;;;;;;5051848;28;20413;-72
2023/06/08 03:35:45;;;;;;;32.03;15.67;;;17.00;59.30;;;;;;5052006;28;20381;-72
2023/06/08 03:38:11;;;;;;;29.42;15.10;;;16.90;59.50;;;;;;5063824;22;20516;-72
2023/06/08 03:40:36;;;;;;;31.35;15.52;;;16.80;60.40;;;;;;5051100;28;20826;-71
2023/06/08 03:43:02;;;;;;;23.25;14.90;;;16.90;59.90;;;;;;5050793;28;20389;-71
2023/06/08 03:45:28;;;;;;;33.30;15.50;;;16.90;59.30;;;;;;5051032;28;20453;-71
2023/06/08 03:47:55;;;;;;;30.43;15.00;;;16.90;59.50;;;;;;5051178;28;20780;-70
2023/06/08 03:50:21;;;;;;;29.23;15.93;;;16.90;59.60;;;;;;5050830;28;20411;-72
2023/06/08 03:52:46;;;;;;;29.70;16.07;;;16.90;59.90;;;;;;5050668;28;20464;-72
2023/06/08 03:55:12;;;;;;;29.93;15.37;;;16.90;60.00;;;;;;5051401;28;20485;-72
2023/06/08 03:57:38;;;;;;;25.88;15.38;;;16.90;59.90;;;;;;5051099;28;20377;-72
2023/06/08 04:00:08;;;;;;;29.20;15.90;;;16.80;60.10;;;;;;5050932;28;20382;-72
2023/06/08 04:02:34;;;;;;;30.33;15.25;;;16.80;60.30;;;;;;5050398;28;20382;-71
2023/06/08 04:04:59;;;;;;;28.27;16.33;;;16.80;61.10;;;;;;5050673;28;20377;-71
2023/06/08 04:07:26;;;;;;;30.17;15.40;;;16.80;60.40;;;;;;5050674;28;20857;-70
2023/06/08 04:09:52;;;;;;;25.27;15.70;;;16.80;60.70;;;;;;5050609;28;20386;-72
2023/06/08 04:12:17;;;;;;;27.07;15.00;;;16.80;60.70;;;;;;5050518;28;20377;-71
2023/06/08 04:14:43;;;;;;;29.63;16.02;;;16.80;60.60;;;;;;5050947;28;20393;-71
2023/06/08 04:17:08;;;;;;;28.13;15.47;;;16.70;60.70;;;;;;5050836;28;20390;-71
2023/06/08 04:19:34;;;;;;;29.10;15.60;;;16.70;60.40;;;;;;5050804;28;20381;-71
2023/06/08 04:21:59;;;;;;;25.73;15.05;;;16.70;60.20;;;;;;5050386;28;20440;-70
2023/06/08 04:24:28;;;;;;;33.67;15.43;;;16.60;60.30;;;;;;5050936;28;20389;-72
2023/06/08 04:26:54;;;;;;;27.45;15.88;;;16.60;60.70;;;;;;5051723;28;20782;-71
2023/06/08 04:29:21;;;;;;;26.02;15.27;;;16.70;59.80;;;;;;5051424;28;20394;-72
2023/06/08 04:31:46;;;;;;;29.20;15.53;;;16.70;59.80;;;;;;5050817;28;20393;-72
2023/06/08 04:34:12;;;;;;;37.40;18.23;;;16.70;59.30;;;;;;5051035;28;20755;-70
2023/06/08 04:36:39;;;;;;;37.78;23.15;;;16.70;59.10;;;;;;5050415;28;20381;-71
2023/06/08 04:39:08;;;;;;;39.75;21.27;;;16.80;59.10;;;;;;5050168;28;20431;-72
2023/06/08 04:41:34;;;;;;;44.47;22.67;;;16.80;58.80;;;;;;5050065;28;20481;-70
2023/06/08 04:44:01;;;;;;;37.17;20.70;;;16.80;58.90;;;;;;5050492;28;20738;-71
2023/06/08 04:46:28;;;;;;;35.80;21.02;;;16.80;58.60;;;;;;5050408;28;20393;-71
2023/06/08 04:48:55;;;;;;;37.03;20.05;;;16.90;58.00;;;;;;5050158;28;20443;-72
2023/06/08 04:51:23;;;;;;;36.53;20.90;;;16.90;57.60;;;;;;5049984;28;20389;-71
2023/06/08 04:53:50;;;;;;;38.78;23.02;;;17.00;57.50;;;;;;5050989;28;20496;-72
2023/06/08 04:56:18;;;;;;;30.05;17.85;;;17.00;56.20;;;;;;5051108;28;20385;-71
2023/06/08 04:58:45;;;;;;;32.67;18.13;;;17.00;56.20;;;;;;5054972;28;20468;-73
2023/06/08 05:01:11;;;;;;;29.08;18.20;;;17.00;55.80;;;;;;5054495;28;20401;-73
2023/06/08 05:03:37;;;;;;;37.53;18.75;;;17.00;56.00;;;;;;5054881;28;20492;-72
2023/06/08 05:06:02;;;;;;;40.15;20.92;;;17.00;55.90;;;;;;5052931;28;20390;-72
2023/06/08 05:08:28;;;;;;;28.52;15.95;;;17.10;55.10;;;;;;5054254;28;20742;-72
2023/06/08 05:10:53;;;;;;;28.70;15.70;;;17.10;54.50;;;;;;5053821;28;20381;-72
2023/06/08 05:13:19;;;;;;;27.13;15.50;;;17.10;54.70;;;;;;5053856;28;20405;-71
2023/06/08 05:15:45;;;;;;;29.20;15.33;;;17.10;54.10;;;;;;5053920;28;20430;-71
2023/06/08 05:18:10;;;;;;;26.23;14.80;;;17.10;54.50;;;;;;5053635;28;20443;-73
2023/06/08 05:20:36;;;;;;;27.50;15.40;;;17.10;54.10;;;;;;5054754;28;20747;-74
2023/06/08 05:23:02;;;;;;;31.60;15.83;;;17.10;54.20;;;;;;5054398;28;20381;-73
2023/06/08 05:25:30;;;;;;;31.57;15.70;;;17.10;54.50;;;;;;5055380;28;20727;-72
2023/06/08 05:27:56;;;;;;;26.30;14.45;;;17.20;54.70;;;;;;5055096;28;20439;-73
2023/06/08 05:30:21;;;;;;;27.75;16.20;;;17.20;53.30;;;;;;5054077;28;20389;-72
2023/06/08 05:32:47;;;;;;;27.80;16.08;;;17.20;52.80;;;;;;5053548;28;20748;-72
2023/06/08 05:35:13;;;;;;;28.40;15.70;;;17.30;52.80;;;;;;5053567;28;20740;-72
2023/06/08 05:37:38;;;;;;;29.10;15.60;;;17.40;51.70;;;;;;5053291;28;20885;-72
2023/06/08 05:40:05;;;;;;;35.92;15.98;;;17.50;51.80;;;;;;5053475;28;20881;-72
2023/06/08 05:42:30;;;;;;;33.22;15.10;;;17.40;51.90;;;;;;5053207;28;20392;-72
2023/06/08 05:44:56;;;;;;;30.07;15.20;;;17.40;51.40;;;;;;5053505;28;20389;-72
2023/06/08 05:47:21;;;;;;;27.70;15.43;;;17.50;51.10;;;;;;5053445;28;20908;-71
2023/06/08 05:49:47;;;;;;;28.55;15.43;;;17.50;51.70;;;;;;5053336;28;20400;-73
2023/06/08 05:52:12;;;;;;;29.47;15.30;;;17.70;50.70;;;;;;5053484;28;20388;-72
2023/06/08 05:54:38;;;;;;;30.60;15.50;;;17.70;48.90;;;;;;5052345;28;20948;-73
2023/06/08 05:57:04;;;;;;;34.60;16.00;;;17.70;48.70;;;;;;5054391;28;20382;-73
2023/06/08 05:59:29;;;;;;;30.25;15.90;;;17.80;48.30;;;;;;5054057;28;20719;-72
2023/06/08 06:01:55;;;;;;;28.20;15.47;;;17.90;48.50;;;;;;5053506;28;20389;-73
2023/06/08 06:04:20;;;;;;;26.90;14.47;;;17.90;47.90;;;;;;5054125;28;20409;-74
2023/06/08 06:06:46;;;;;;;30.27;16.05;;;17.90;48.60;;;;;;5054727;28;20389;-71
2023/06/08 06:09:11;;;;;;;31.17;15.43;;;17.90;48.70;;;;;;5053611;28;20421;-73
2023/06/08 06:11:37;;;;;;;28.10;15.60;;;18.10;47.30;;;;;;5054301;28;20423;-72
2023/06/08 06:14:03;;;;;;;23.92;14.60;;;18.10;46.30;;;;;;5052836;28;20428;-73
2023/06/08 06:16:28;;;;;;;26.67;15.13;;;18.10;46.70;;;;;;5054325;28;20394;-74
2023/06/08 06:18:54;;;;;;;27.40;14.85;;;18.20;46.40;;;;;;5052553;28;20752;-71
2023/06/08 06:21:20;;;;;;;32.20;15.37;;;18.30;46.20;;;;;;5053717;28;20385;-71
2023/06/08 06:23:46;;;;;;;28.77;15.67;;;18.30;44.90;;;;;;5052631;28;20463;-69
2023/06/08 06:26:12;;;;;;;23.98;15.23;;;18.40;45.40;;;;;;5052598;28;20727;-70
2023/06/08 06:28:38;;;;;;;23.97;14.63;;;18.50;45.30;;;;;;5052688;28;20392;-70
2023/06/08 06:31:04;;;;;;;26.33;14.60;;;18.60;44.50;;;;;;5052581;28;20388;-70
2023/06/08 06:33:30;;;;;;;27.05;14.68;;;18.80;43.90;;;;;;5052208;28;20401;-70
2023/06/08 06:35:56;;;;;;;23.40;13.80;;;19.00;42.80;;;;;;5052143;28;20393;-71
2023/06/08 06:38:21;;;;;;;25.93;14.37;;;19.20;41.60;;;;;;5052093;28;20453;-71
2023/06/08 06:40:52;;;;;;;26.25;14.15;;;19.40;39.60;;;;;;5052414;28;20377;-72
2023/06/08 06:43:19;;;;;;;23.40;13.73;;;19.60;38.80;;;;;;5052137;28;20385;-71
2023/06/08 06:45:50;;;;;;;23.00;13.70;;;19.80;37.00;;;;;;5052190;28;20797;-71
2023/06/08 06:48:17;;;;;;;23.70;13.60;;;19.80;36.80;;;;;;5052059;28;20420;-70
2023/06/08 06:50:42;;;;;;;22.40;12.70;;;19.90;37.30;;;;;;5052058;28;20413;-70
2023/06/08 06:53:08;;;;;;;23.67;13.87;;;19.90;37.30;;;;;;5051708;28;20837;-71
2023/06/08 06:55:34;;;;;;;25.27;14.37;;;19.70;36.70;;;;;;5050605;28;20382;-70
2023/06/08 06:58:02;;;;;;;25.23;14.00;;;19.50;38.30;;;;;;5051760;28;20438;-71
2023/06/08 07:00:29;;;;;;;26.92;14.48;;;19.70;39.00;;;;;;5052093;28;20386;-70
2023/06/08 07:02:56;;;;;;;19.40;13.43;;;20.00;37.10;;;;;;5050599;28;20389;-69
2023/06/08 07:05:21;;;;;;;23.60;13.67;;;20.20;36.90;;;;;;5051648;28;20739;-70
2023/06/08 07:07:47;;;;;;;24.50;13.97;;;20.00;36.00;;;;;;5051668;28;20385;-69
2023/06/08 07:10:12;;;;;;;28.25;14.18;;;20.00;37.30;;;;;;5051611;28;20388;-69
2023/06/08 07:12:38;;;;;;;21.88;14.13;;;20.10;36.80;;;;;;5051509;28;20728;-70
2023/06/08 07:15:04;;;;;;;21.90;13.83;;;19.90;37.10;;;;;;5051705;28;20459;-72
2023/06/08 07:17:30;;;;;;;22.40;14.10;;;19.80;36.70;;;;;;5052141;28;20439;-71
2023/06/08 07:19:57;;;;;;;26.27;15.38;;;19.90;37.00;;;;;;5051568;28;20397;-70
2023/06/08 07:22:23;;;;;;;23.90;13.32;;;19.80;37.00;;;;;;5051456;28;20868;-71
2023/06/08 07:24:48;;;;;;;24.13;14.40;;;19.60;37.10;;;;;;5051564;28;20385;-73
2023/06/08 07:27:14;;;;;;;28.37;13.57;;;19.60;38.30;;;;;;5051207;28;20469;-71
2023/06/08 07:29:39;;;;;;;25.38;14.05;;;19.80;37.80;;;;;;5049845;28;20396;-71
2023/06/08 07:32:06;;;;;;;19.77;13.60;;;20.10;35.60;;;;;;5050814;28;20938;-71
2023/06/08 07:34:32;;;;;;;24.23;13.57;;;20.30;35.50;;;;;;5054617;28;20406;-72
2023/06/08 07:36:58;;;;;;;23.87;13.47;;;20.30;35.00;;;;;;5060744;28;20390;-71
2023/06/08 07:39:23;;;;;;;20.92;13.05;;;20.30;36.20;;;;;;5054776;28;20393;-70
2023/06/08 07:41:49;;;;;;;20.80;13.13;;;20.50;36.20;;;;;;5053592;28;20377;-70
2023/06/08 07:44:14;;;;;;;21.33;12.87;;;20.50;35.50;;;;;;5051212;28;20404;-71
2023/06/08 07:46:40;;;;;;;24.40;12.87;;;20.60;36.30;;;;;;5051350;28;20737;-68
2023/06/08 07:49:05;;;;;;;21.37;12.77;;;20.90;34.80;;;;;;5051218;28;20910;-71
2023/06/08 07:51:31;;;;;;;25.83;12.40;;;21.00;33.70;;;;;;5051139;28;20413;-71
2023/06/08 07:53:56;;;;;;;23.27;13.40;;;21.00;34.00;;;;;;5050949;28;20440;-72
2023/06/08 07:56:22;;;;;;;20.43;13.20;;;21.00;34.30;;;;;;5050618;28;20417;-71
2023/06/08 07:58:48;;;;;;;21.80;13.20;;;21.00;34.00;;;;;;5050802;28;20381;-71
2023/06/08 08:01:14;;;;;;;17.85;12.73;;;21.00;34.50;;;;;;5050385;28;20467;-70
2023/06/08 08:03:39;;;;;;;17.90;11.77;;;21.00;34.80;;;;;;5050895;28;20793;-71
2023/06/08 08:06:06;;;;;;;21.37;12.30;;;21.00;34.40;;;;;;5050736;28;20468;-73
2023/06/08 08:08:31;;;;;;;19.80;12.02;;;21.10;34.70;;;;;;5050862;28;20385;-71
2023/06/08 08:10:57;;;;;;;20.98;13.60;;;21.10;35.00;;;;;;5050746;28;20438;-70
2023/06/08 08:13:22;;;;;;;22.00;12.77;;;21.10;35.30;;;;;;5050909;28;20804;-71
2023/06/08 08:15:48;;;;;;;22.80;13.10;;;21.40;34.00;;;;;;5050965;28;20794;-70
2023/06/08 08:18:14;;;;;;;21.95;11.95;;;21.40;34.10;;;;;;5050632;28;20893;-71
2023/06/08 08:20:39;;;;;;;25.27;13.27;;;21.50;33.50;;;;;;5050614;28;20762;-71
2023/06/08 08:23:05;;;;;;;23.57;12.43;;;21.50;33.80;;;;;;5050348;28;20388;-71
2023/06/08 08:25:31;;;;;;;22.73;11.98;;;21.40;34.40;;;;;;5051089;28;20385;-71
2023/06/08 08:27:57;;;;;;;19.58;11.73;;;21.60;34.10;;;;;;5050493;28;20396;-70
2023/06/08 08:30:23;;;;;;;21.85;12.30;;;21.90;33.90;;;;;;5050455;28;20384;-70
2023/06/08 08:32:49;;;;;;;20.95;11.70;;;22.10;31.70;;;;;;5049528;28;20395;-70
2023/06/08 08:35:15;;;;;;;18.55;12.02;;;22.20;30.80;;;;;;5050362;28;20457;-69
2023/06/08 08:37:42;;;;;;;19.45;11.80;;;22.30;31.60;;;;;;5048907;28;20464;-69
2023/06/08 08:40:09;;;;;;;21.30;11.38;;;22.30;31.10;;;;;;5050352;28;20427;-70
2023/06/08 08:42:49;;;;;;;18.85;11.10;;;22.40;30.90;;;;;;5050319;28;20381;-71
2023/06/08 08:45:16;;;;;;;22.07;11.23;;;22.50;30.20;;;;;;5050865;28;20396;-70
2023/06/08 08:47:42;;;;;;;19.08;11.45;;;22.60;30.10;;;;;;5049172;28;20423;-70
2023/06/08 08:50:16;;;;;;;21.40;11.93;;;22.70;30.60;;;;;;5049983;28;20445;-71
2023/06/08 08:52:45;;;;;;;18.47;11.67;;;22.70;29.20;;;;;;5050278;28;20464;-72
2023/06/08 08:55:11;;;;;;;22.55;11.15;;;22.60;29.10;;;;;;5050424;28;20767;-71
2023/06/08 08:57:36;;;;;;;16.25;11.77;;;22.50;30.00;;;;;;5052086;28;20458;-71
2023/06/08 09:00:06;;;;;;;17.00;11.40;;;22.60;29.40;;;;;;5055646;28;20377;-71
2023/06/08 09:02:36;;;;;;;14.60;11.50;;;22.60;29.30;;;;;;5055396;28;20451;-71
2023/06/08 09:05:05;;;;;;;18.17;11.52;;;22.70;30.30;;;;;;5056955;28;20392;-70
2023/06/08 09:07:31;;;;;;;17.55;12.10;;;22.80;29.60;;;;;;5061797;28;20389;-72
2023/06/08 09:10:21;;;;;;;16.77;11.77;;;22.80;28.90;;;;;;5062078;28;20377;-72
2023/06/08 09:12:49;;;;;;;21.63;11.20;;;22.90;29.50;;;;;;5068722;28;20397;-71
2023/06/08 09:15:26;;;;;;;19.53;11.10;;;23.20;28.80;;;;;;5069077;28;20377;-72
2023/06/08 09:17:53;;;;;;;15.52;10.80;;;23.40;27.30;;;;;;5066658;28;20389;-70
2023/06/08 09:20:27;;;;;;;17.80;11.37;;;23.10;27.40;;;;;;5060993;28;20793;-72
2023/06/08 09:22:53;;;;;;;18.90;11.30;;;22.90;28.60;;;;;;5053055;28;20933;-72
2023/06/08 09:25:36;;;;;;;18.47;11.00;;;23.00;29.30;;;;;;5050218;28;20412;-71
2023/06/08 09:28:18;;;;;;;19.02;11.95;;;23.10;27.60;;;;;;5050196;28;20899;-70
2023/06/08 09:30:48;;;;;;;17.48;11.50;;;23.10;28.90;;;;;;5048911;28;20770;-71
2023/06/08 09:33:24;;;;;;;19.98;12.05;;;23.30;28.10;;;;;;5048307;28;20416;-71
2023/06/08 09:35:56;;;;;;;16.48;11.55;;;23.40;27.70;;;;;;5049848;28;20394;-71
2023/06/08 09:38:25;;;;;;;18.73;12.18;;;23.70;27.20;;;;;;5063560;23;20434;-75
2023/06/08 09:40:51;;;;;;;17.63;11.85;;;23.80;26.10;;;;;;5050183;28;20469;-74
2023/06/08 09:43:33;;;;;;;16.87;11.83;;;23.80;26.10;;;;;;5051369;28;20576;-75
2023/06/08 09:45:59;;;;;;;17.00;11.57;;;23.80;26.00;;;;;;5053666;28;20515;-75
2023/06/08 09:48:25;;;;;;;16.85;11.82;;;23.90;25.70;;;;;;5054138;28;20913;-76
2023/06/08 09:50:58;;;;;;;18.17;11.00;;;23.80;25.70;;;;;;5051848;28;20885;-72
2023/06/08 09:53:24;;;;;;;19.10;11.27;;;23.90;26.40;;;;;;5052744;28;20493;-73
2023/06/08 09:55:53;;;;;;;15.85;10.88;;;24.10;25.80;;;;;;5051523;28;20382;-74
2023/06/08 09:58:22;;;;;;;21.02;11.43;;;24.30;25.00;;;;;;5052516;28;20854;-74
2023/06/08 10:00:48;;;;;;;16.95;10.30;;;24.40;24.80;;;;;;5052531;28;20386;-74
2023/06/08 10:03:21;;;;;;;19.48;11.38;;;24.60;24.10;;;;;;5052290;28;20443;-74
2023/06/08 10:05:48;;;;;;;14.13;11.20;;;24.70;23.70;;;;;;5052711;28;20439;-74
2023/06/08 10:08:26;;;;;;;19.98;11.60;;;24.80;23.00;;;;;;5052980;28;20386;-75
2023/06/08 10:10:52;;;;;;;15.65;10.80;;;24.50;23.10;;;;;;5053939;28;20392;-76
2023/06/08 10:13:18;;;;;;;17.73;11.40;;;24.40;24.80;;;;;;5053574;28;20603;-75
2023/06/08 10:15:44;;;;;;;17.98;10.82;;;24.40;23.60;;;;;;5051232;28;20381;-75
2023/06/08 10:18:10;;;;;;;16.63;10.25;;;24.50;23.90;;;;;;5052246;28;20492;-72
2023/06/08 10:20:36;;;;;;;16.42;11.38;;;24.60;24.50;;;;;;5052307;28;20381;-74
2023/06/08 10:23:04;;;;;;;15.05;11.10;;;24.60;23.00;;;;;;5051973;28;20795;-74
2023/06/08 10:25:30;;;;;;;18.40;11.98;;;24.50;24.80;;;;;;5052602;28;20766;-74
2023/06/08 10:28:04;;;;;;;14.60;10.75;;;24.50;23.80;;;;;;5051400;28;20389;-75
2023/06/08 10:30:44;;;;;;;18.20;11.88;;;24.50;24.30;;;;;;5052320;28;20381;-74
2023/06/08 10:33:15;;;;;;;21.08;11.60;;;24.80;24.10;;;;;;5053363;28;20492;-74
2023/06/08 10:36:01;;;;;;;21.02;12.07;;;24.80;23.00;;;;;;5055014;28;20393;-75
2023/06/08 10:38:26;;;;;;;16.15;11.25;;;24.80;23.50;;;;;;5052324;28;20424;-74
2023/06/08 10:40:52;;;;;;;16.33;12.05;;;24.60;22.60;;;;;;5052750;28;20479;-75
2023/06/08 10:43:21;;;;;;;18.13;11.90;;;24.50;23.70;;;;;;5052039;28;20377;-74
2023/06/08 10:45:48;;;;;;;20.10;12.88;;;24.60;23.70;;;;;;5051957;28;20427;-73
2023/06/08 10:48:18;;;;;;;15.65;11.25;;;24.50;23.30;;;;;;5052173;28;20462;-73
2023/06/08 10:50:46;;;;;;;20.25;11.55;;;24.70;24.20;;;;;;5051757;28;20396;-73
2023/06/08 10:53:12;;;;;;;18.60;12.20;;;25.10;22.50;;;;;;5051720;28;20900;-74
2023/06/08 10:55:37;;;;;;;20.50;12.05;;;25.40;20.80;;;;;;5051128;28;20386;-74
2023/06/08 10:58:18;;;;;;;20.90;12.67;;;25.30;20.60;;;;;;5052246;28;20381;-74
2023/06/08 11:00:45;;;;;;;18.48;12.10;;;25.20;20.90;;;;;;5052121;28;20865;-74
2023/06/08 11:03:13;;;;;;;17.35;12.15;;;25.40;20.60;;;;;;5051398;28;20413;-73
2023/06/08 11:05:41;;;;;;;17.58;11.82;;;25.50;20.00;;;;;;5051790;28;20400;-74
2023/06/08 11:08:07;;;;;;;23.13;11.77;;;25.60;19.80;;;;;;5051330;28;20973;-73
2023/06/08 11:10:33;;;;;;;22.30;12.10;;;25.70;19.40;;;;;;5051439;28;20447;-73
2023/06/08 11:13:30;;;;;;;22.33;13.80;;;25.80;19.10;;;;;;5051060;28;20392;-76
2023/06/08 11:15:56;;;;;;;16.90;10.80;;;25.50;19.90;;;;;;5043122;28;20809;-75
2023/06/08 11:18:23;;;;;;;20.92;11.50;;;25.60;20.50;;;;;;5051097;28;20381;-75
2023/06/08 11:20:49;;;;;;;18.95;11.20;;;25.70;19.40;;;;;;5051545;28;20489;-75
2023/06/08 11:23:15;;;;;;;21.45;12.40;;;25.80;19.10;;;;;;5051028;28;20393;-74
2023/06/08 11:25:43;;;;;;;16.90;11.60;;;25.80;18.70;;;;;;5051506;28;20866;-76
2023/06/08 11:28:10;;;;;;;20.33;11.27;;;26.10;18.50;;;;;;5051279;28;20389;-75
2023/06/08 11:30:38;;;;;;;15.75;11.45;;;26.30;17.70;;;;;;5050665;28;20385;-73
2023/06/08 11:33:05;;;;;;;14.55;11.45;;;26.10;18.10;;;;;;5050733;28;20904;-74
2023/06/08 11:35:31;;;;;;;16.87;11.13;;;25.90;18.00;;;;;;5050938;28;20385;-74
2023/06/08 11:38:01;;;;;;;20.98;11.40;;;25.80;18.30;;;;;;5050977;28;20392;-74
2023/06/08 11:40:30;;;;;;;13.57;11.10;;;25.70;18.40;;;;;;5050582;28;20405;-74
2023/06/08 11:42:57;;;;;;;15.67;10.60;;;25.70;18.80;;;;;;5050978;28;20377;-72
2023/06/08 11:45:23;;;;;;;16.83;11.70;;;25.80;18.90;;;;;;5050882;28;20384;-74
2023/06/08 11:47:53;;;;;;;15.90;11.45;;;26.10;18.00;;;;;;5051128;28;20381;-74
2023/06/08 11:50:19;;;;;;;14.13;10.65;;;26.40;17.30;;;;;;5050982;28;20516;-75
2023/06/08 11:52:46;;;;;;;15.23;10.98;;;26.80;16.90;;;;;;5049479;28;20428;-76
2023/06/08 11:55:17;;;;;;;14.98;10.40;;;27.30;16.20;;;;;;5050796;28;20400;-76
2023/06/08 11:57:51;;;;;;;12.07;10.00;;;27.70;14.40;;;;;;5051140;28;20385;-73
2023/06/08 12:00:26;;;;;;;14.17;9.50;;;27.30;15.50;;;;;;5050745;28;20810;-74
2023/06/08 12:02:55;;;;;;;16.50;11.00;;;27.20;15.70;;;;;;5050772;28;20754;-76
2023/06/08 12:05:33;;;;;;;15.30;10.75;;;27.30;15.60;;;;;;5050568;28;20862;-74
2023/06/08 12:08:02;;;;;;;14.02;10.55;;;27.40;14.90;;;;;;5050144;28;20404;-74
2023/06/08 12:10:32;;;;;;;14.70;10.88;;;27.40;15.10;;;;;;5051290;28;20393;-75
2023/06/08 12:13:03;;;;;;;16.08;10.63;;;27.20;15.30;;;;;;5056009;28;20389;-75
2023/06/08 12:15:36;;;;;;;13.32;10.48;;;27.10;15.50;;;;;;5056681;28;20429;-75
2023/06/08 12:18:02;;;;;;;17.55;10.43;;;27.00;16.00;;;;;;5059687;28;20425;-73
2023/06/08 12:20:33;;;;;;;17.25;10.50;;;26.80;15.90;;;;;;5055559;28;20417;-74
2023/06/08 12:22:59;;;;;;;13.00;10.15;;;26.60;15.80;;;;;;5053340;28;20389;-75
2023/06/08 12:25:24;;;;;;;14.90;11.00;;;26.50;15.90;;;;;;5050163;28;20381;-75
2023/06/08 12:27:50;;;;;;;15.40;10.50;;;26.70;15.90;;;;;;5051194;28;20950;-73
2023/06/08 12:30:16;;;;;;;17.10;10.65;;;27.30;15.80;;;;;;5051021;28;20389;-73